Time;durP1;ratioP1;P1;durP2;ratioP2;P2;SDS_P1;SDS_P2;PMS_P1;PMS_P2;Temp;Humidity;BMP_temperature;BMP_pressure;BME280_temperature;BME280_humidity;BME280_pressure;Samples;Min_cycle;Max_cycle;Signal;HPM_P1;HPM_P2
2022/03/14 00:00:12;;;;;;;48.48;29.52;;;;;;;4.04;52.55;101374.39;1734181;82;20993;-50
2022/03/14 00:02:41;;;;;;;49.25;29.95;;;;;;;4.06;52.65;101375.28;1733963;82;22509;-50
2022/03/14 00:05:10;;;;;;;53.38;31.27;;;;;;;4.13;52.52;101370.17;1733910;82;21569;-50
2022/03/14 00:07:38;;;;;;;49.48;30.32;;;;;;;4.19;52.43;101372.40;1733000;81;21347;-51
2022/03/14 00:10:07;;;;;;;52.60;31.93;;;;;;;4.23;52.38;101375.47;1732982;82;21424;-51
2022/03/14 00:12:34;;;;;;;58.65;33.33;;;;;;;4.21;52.33;101374.59;1733164;82;21577;-50
2022/03/14 00:15:08;;;;;;;56.10;32.42;;;;;;;4.18;52.48;101369.36;1733713;82;22597;-50
2022/03/14 00:17:31;;;;;;;60.50;33.75;;;;;;;4.21;52.69;101376.33;1733279;82;21458;-50
2022/03/14 00:19:59;;;;;;;63.40;35.25;;;;;;;4.23;52.58;101374.17;1733942;82;21446;-50
2022/03/14 00:22:27;;;;;;;67.42;37.38;;;;;;;4.24;52.61;101378.53;1733728;82;21416;-51
2022/03/14 00:24:54;;;;;;;64.70;38.35;;;;;;;4.23;52.69;101385.89;1734013;82;20970;-51
2022/03/14 00:27:22;;;;;;;60.98;36.70;;;;;;;4.20;52.85;101374.16;1733906;82;21423;-50
2022/03/14 00:29:50;;;;;;;61.68;37.13;;;;;;;4.13;53.05;101376.68;1733157;82;21490;-51
2022/03/14 00:32:17;;;;;;;62.13;37.20;;;;;;;4.12;53.02;101374.92;1713831;82;21580;-51
2022/03/14 00:34:47;;;;;;;56.58;32.13;;;;;;;4.18;53.08;101370.67;1707303;83;21566;-52
2022/03/14 00:37:15;;;;;;;58.10;34.00;;;;;;;4.19;52.92;101376.30;1707964;83;21432;-51
2022/03/14 00:39:42;;;;;;;62.13;36.65;;;;;;;4.19;52.89;101380.21;1708667;83;22651;-50
2022/03/14 00:42:09;;;;;;;60.13;35.27;;;;;;;4.23;52.92;101373.31;1709565;83;21541;-50
2022/03/14 00:44:36;;;;;;;55.55;32.40;;;;;;;4.26;53.04;101377.26;1708626;83;21327;-50
2022/03/14 00:47:04;;;;;;;53.70;33.50;;;;;;;4.28;53.03;101376.84;1708878;83;21409;-50
2022/03/14 00:49:30;;;;;;;56.65;32.55;;;;;;;4.26;52.95;101379.86;1708664;83;21633;-51
2022/03/14 00:51:57;;;;;;;52.27;32.00;;;;;;;4.26;53.27;101378.56;1708854;82;22537;-50
2022/03/14 00:54:24;;;;;;;55.48;32.48;;;;;;;4.29;53.32;101382.08;1708812;83;21411;-51
2022/03/14 00:56:51;;;;;;;56.15;32.38;;;;;;;4.33;53.27;101379.48;1708882;83;21422;-50
2022/03/14 00:59:18;;;;;;;49.18;31.33;;;;;;;4.33;53.39;101375.58;1722049;81;21348;-52
2022/03/14 01:01:45;;;;;;;55.80;31.93;;;;;;;4.38;53.46;101373.46;1733514;82;21471;-52
2022/03/14 01:04:11;;;;;;;49.50;30.35;;;;;;;4.44;53.23;101371.34;1737111;82;22728;-51
2022/03/14 01:06:39;;;;;;;47.58;28.83;;;;;;;4.40;53.50;101374.79;1736578;82;21071;-51
2022/03/14 01:09:07;;;;;;;45.63;28.47;;;;;;;4.34;53.47;101377.34;1737900;82;21395;-50
2022/03/14 01:11:37;;;;;;;48.23;28.65;;;;;;;4.34;53.56;101384.72;1737682;82;21403;-50
2022/03/14 01:14:05;;;;;;;45.43;28.15;;;;;;;4.35;53.52;101381.27;1737661;82;21438;-51
2022/03/14 01:16:32;;;;;;;45.38;27.35;;;;;;;4.38;53.40;101384.31;1737841;82;26472;-51
2022/03/14 01:18:59;;;;;;;42.47;26.03;;;;;;;4.41;53.30;101381.32;1738085;82;20930;-50
2022/03/14 01:21:28;;;;;;;41.58;26.20;;;;;;;4.44;53.06;101383.94;1737945;82;21570;-50
2022/03/14 01:23:55;;;;;;;45.58;24.70;;;;;;;4.42;53.10;101381.75;1737746;82;21495;-50
2022/03/14 01:26:22;;;;;;;43.02;26.02;;;;;;;4.44;53.00;101383.07;1737923;82;21477;-50
2022/03/14 01:28:49;;;;;;;45.70;25.82;;;;;;;4.44;53.15;101377.86;1737721;82;21544;-50
2022/03/14 01:31:16;;;;;;;43.05;25.95;;;;;;;4.45;52.91;101380.48;1737697;82;21339;-50
2022/03/14 01:33:43;;;;;;;41.90;25.65;;;;;;;4.42;52.85;101388.70;1737630;81;21519;-52
2022/03/14 01:36:10;;;;;;;44.88;26.77;;;;;;;4.45;52.76;101384.83;1724524;82;21082;-53
2022/03/14 01:38:38;;;;;;;42.33;24.12;;;;;;;4.45;52.76;101384.39;1684250;84;21184;-51
2022/03/14 01:41:04;;;;;;;37.42;24.37;;;;;;;4.42;52.72;101384.79;1724292;82;22421;-50
2022/03/14 01:43:31;;;;;;;38.60;24.27;;;;;;;4.40;52.79;101380.00;1724561;82;21451;-50
2022/03/14 01:45:58;;;;;;;39.87;24.27;;;;;;;4.15;52.75;101352.84;1725201;82;21467;-51
2022/03/14 01:48:25;;;;;;;39.98;23.77;;;;;;;4.40;52.85;101399.09;1724755;82;21094;-50
2022/03/14 01:50:53;;;;;;;39.18;23.15;;;;;;;4.37;52.83;101390.38;1684910;84;21511;-51
2022/03/14 01:53:20;;;;;;;36.03;22.30;;;;;;;4.34;52.82;101396.87;1724542;82;22523;-51
2022/03/14 01:55:48;;;;;;;41.20;25.45;;;;;;;4.33;52.95;101388.59;1684892;84;21298;-50
2022/03/14 01:58:16;;;;;;;41.90;23.73;;;;;;;4.41;52.90;101398.69;1724624;82;21399;-50
2022/03/14 02:00:44;;;;;;;39.75;24.40;;;;;;;4.36;52.95;101399.92;1686397;83;21492;-50
2022/03/14 02:03:11;;;;;;;34.30;22.13;;;;;;;4.31;53.16;101389.87;1729503;82;21417;-51
2022/03/14 02:05:40;;;;;;;41.85;23.75;;;;;;;4.35;53.30;101395.99;1730249;82;21629;-51
2022/03/14 02:08:07;;;;;;;;;;;;;;;4.35;53.04;101388.18;1734265;82;21488;-50
2022/03/14 02:10:35;;;;;;;37.98;22.20;;;;;;;4.32;52.85;101390.77;1732261;82;20375;-52
2022/03/14 02:13:08;;;;;;;38.35;22.60;;;;;;;4.28;52.79;101388.56;1711212;82;21448;-51
2022/03/14 02:15:38;;;;;;;35.92;21.17;;;;;;;4.26;52.73;101391.14;1732440;82;20851;-50
2022/03/14 02:18:06;;;;;;;32.17;21.30;;;;;;;4.29;52.92;101402.91;1732118;82;22500;-51
2022/03/14 02:20:34;;;;;;;36.90;21.65;;;;;;;4.33;52.84;101402.48;1732159;82;21402;-50
2022/03/14 02:23:01;;;;;;;36.15;22.98;;;;;;;4.38;52.40;101406.45;1732266;82;21431;-50
2022/03/14 02:25:28;;;;;;;41.08;22.25;;;;;;;4.43;52.08;101399.14;1732807;82;21614;-50
2022/03/14 02:27:54;;;;;;;40.43;21.70;;;;;;;4.44;51.80;101406.08;1732189;82;21364;-51
2022/03/14 02:30:22;;;;;;;40.35;22.50;;;;;;;4.47;51.81;101409.16;1732132;82;22718;-50
2022/03/14 02:32:49;;;;;;;34.80;22.42;;;;;;;4.45;51.81;101409.58;1732147;82;21542;-50
2022/03/14 02:35:16;;;;;;;39.23;21.60;;;;;;;4.47;51.90;101410.46;1717782;81;21393;-51
2022/03/14 02:37:45;;;;;;;36.93;22.35;;;;;;;4.52;51.85;101414.41;1707497;83;21548;-51
2022/03/14 02:40:13;;;;;;;36.03;21.82;;;;;;;4.54;51.60;101420.09;1708034;83;21358;-50
2022/03/14 02:42:40;;;;;;;43.23;22.17;;;;;;;4.53;51.51;101422.24;1708770;83;22504;-51
2022/03/14 02:45:09;;;;;;;34.85;20.55;;;;;;;4.57;51.38;101417.94;1708587;83;21352;-51
2022/03/14 02:47:36;;;;;;;37.03;20.85;;;;;;;4.58;51.24;101425.78;1708558;83;21423;-50
2022/03/14 02:50:04;;;;;;;35.23;19.73;;;;;;;4.53;51.33;101429.19;1708778;83;21473;-51
2022/03/14 02:52:31;;;;;;;35.78;20.25;;;;;;;4.46;51.47;101423.03;1708937;83;21541;-50
2022/03/14 02:54:58;;;;;;;27.93;17.70;;;;;;;4.52;51.00;101424.83;1708780;83;22722;-50
2022/03/14 02:57:25;;;;;;;29.50;16.97;;;;;;;4.48;50.98;101422.20;1708634;83;21427;-51
2022/03/14 02:59:52;;;;;;;30.45;17.65;;;;;;;4.50;51.00;101423.50;1708572;82;21465;-50
2022/03/14 03:02:20;;;;;;;28.50;17.80;;;;;;;4.53;50.47;101423.55;1708613;83;21184;-51
2022/03/14 03:04:47;;;;;;;28.52;16.07;;;;;;;4.54;50.34;101421.80;1709266;81;21370;-51
2022/03/14 03:07:14;;;;;;;26.73;16.87;;;;;;;4.47;49.75;101423.48;1708000;83;22641;-51
2022/03/14 03:12:23;;;;;;;23.18;14.15;;;;;;;3.60;53.05;101422.85;1805298;79;23003;-51
2022/03/14 03:14:50;;;;;;;21.57;14.15;;;;;;;4.52;49.51;101417.91;1778308;80;21454;-51
2022/03/14 03:17:18;;;;;;;23.55;14.83;;;;;;;4.57;49.12;101417.50;1778498;80;22436;-51
2022/03/14 03:19:46;;;;;;;20.60;14.25;;;;;;;4.64;49.05;101419.75;1778281;79;21419;-51
2022/03/14 03:22:13;;;;;;;31.75;18.27;;;;;;;4.70;49.13;101420.24;1778377;80;21435;-52
2022/03/14 03:24:39;;;;;;;33.83;20.20;;;;;;;4.73;49.56;101418.55;1778435;80;21445;-51
2022/03/14 03:27:08;;;;;;;25.77;16.20;;;;;;;4.70;50.09;101421.55;1778448;80;21576;-51
2022/03/14 03:29:35;;;;;;;27.22;17.12;;;;;;;4.63;50.04;101420.19;1777072;80;22464;-52
2022/03/14 03:32:03;;;;;;;27.87;16.70;;;;;;;4.62;49.82;101431.45;1778119;80;21448;-52
2022/03/14 03:34:30;;;;;;;;;;;;;;;4.60;50.03;101430.57;1779891;80;21550;-52
2022/03/14 03:36:56;;;;;;;26.55;15.25;;;;;;;4.60;49.43;101428.41;1778499;80;20441;-51
2022/03/14 03:39:24;;;;;;;21.20;14.28;;;;;;;4.53;49.67;101431.80;1778576;80;21462;-51
2022/03/14 03:41:51;;;;;;;21.02;14.10;;;;;;;4.49;49.76;101436.09;1778584;80;22573;-51
2022/03/14 03:44:17;;;;;;;19.42;13.85;;;;;;;4.46;49.68;101438.25;1778355;80;21423;-51
2022/03/14 03:46:44;;;;;;;23.85;15.60;;;;;;;4.41;49.79;101440.36;1778382;80;20919;-51
2022/03/14 03:49:11;;;;;;;23.05;14.45;;;;;;;4.46;49.98;101443.87;1778466;80;21423;-51
2022/03/14 03:51:37;;;;;;;23.85;15.60;;;;;;;4.49;49.97;101439.56;1778700;80;21517;-51
2022/03/14 03:54:04;;;;;;;21.33;14.13;;;;;;;4.58;49.85;101442.71;1747763;80;22830;-52
2022/03/14 03:56:34;;;;;;;27.50;16.82;;;;;;;4.59;49.86;101447.48;1744995;81;20988;-52
2022/03/14 03:59:00;;;;;;;26.90;15.70;;;;;;;4.60;49.74;101440.99;1745400;81;21538;-51
2022/03/14 04:01:29;;;;;;;25.17;14.50;;;;;;;4.51;49.88;101445.23;1745969;81;21415;-51
2022/03/14 04:03:59;;;;;;;24.00;15.60;;;;;;;4.60;49.83;101447.50;1745704;81;21454;-51
2022/03/14 04:06:28;;;;;;;23.35;15.93;;;;;;;4.66;49.70;101446.26;1745887;81;22508;-51
2022/03/14 04:08:55;;;;;;;22.50;16.35;;;;;;;4.72;49.57;101453.70;1745796;81;21379;-51
2022/03/14 04:11:22;;;;;;;25.70;15.63;;;;;;;4.71;49.42;101451.53;1743498;81;21563;-51
2022/03/14 04:13:51;;;;;;;25.50;15.98;;;;;;;4.70;49.59;101461.94;1740857;82;21375;-51
2022/03/14 04:16:18;;;;;;;24.18;15.75;;;;;;;4.83;49.58;101454.25;1745174;80;21415;-51
2022/03/14 04:18:47;;;;;;;28.83;16.02;;;;;;;4.82;49.57;101447.70;1740806;81;22509;-51
2022/03/14 04:21:14;;;;;;;24.75;15.45;;;;;;;4.73;49.63;101455.43;1706095;83;21412;-51
2022/03/14 04:23:41;;;;;;;;;;;;;;;4.71;49.66;101455.84;1723388;82;21518;-51
2022/03/14 04:26:07;;;;;;;24.23;14.83;;;;;;;4.71;49.73;101451.53;1720876;83;20698;-51
2022/03/14 04:28:39;;;;;;;24.70;14.78;;;;;;;4.72;49.62;101455.01;1721035;83;21440;-51
2022/03/14 04:31:06;;;;;;;23.52;14.95;;;;;;;4.66;49.75;101456.68;1720846;83;22554;-51
2022/03/14 04:33:35;;;;;;;19.85;14.05;;;;;;;4.60;49.81;101456.63;1741708;82;21447;-49
2022/03/14 04:36:04;;;;;;;24.52;15.18;;;;;;;4.70;49.67;101461.50;1705885;83;21562;-49
2022/03/14 04:38:31;;;;;;;24.37;16.27;;;;;;;4.62;49.80;101462.72;1680313;83;21495;-50
2022/03/14 04:40:58;;;;;;;25.95;17.87;;;;;;;4.65;49.84;101463.17;1741094;82;21462;-50
2022/03/14 04:43:24;;;;;;;28.07;17.00;;;;;;;4.82;49.51;101460.33;1741367;82;23403;-49
2022/03/14 04:45:51;;;;;;;24.27;16.50;;;;;;;4.78;49.52;101465.48;1741897;82;21339;-49
2022/03/14 04:48:18;;;;;;;25.40;17.05;;;;;;;4.84;49.56;101468.14;1741829;82;21436;-53
2022/03/14 04:50:45;;;;;;;24.55;16.07;;;;;;;4.87;49.51;101461.23;1741708;82;21473;-49
2022/03/14 04:53:11;;;;;;;30.05;18.00;;;;;;;4.90;49.52;101463.02;1741949;82;21080;-49
2022/03/14 04:55:39;;;;;;;24.87;17.32;;;;;;;4.84;49.66;101462.52;1741804;82;22754;-49
2022/03/14 04:58:06;;;;;;;26.12;16.95;;;;;;;4.76;49.71;101466.77;1712235;82;21424;-49
2022/03/14 05:00:34;;;;;;;30.30;18.90;;;;;;;4.77;49.84;101464.62;1741814;82;21491;-49
2022/03/14 05:03:04;;;;;;;26.73;18.82;;;;;;;4.81;49.73;101467.70;1741585;82;21387;-51
2022/03/14 05:05:34;;;;;;;26.70;17.90;;;;;;;4.83;49.70;101467.72;1744423;80;21609;-51
2022/03/14 05:08:02;;;;;;;28.42;17.82;;;;;;;4.82;49.82;101466.85;1741436;82;22518;-51
2022/03/14 05:10:29;;;;;;;28.27;18.20;;;;;;;4.79;49.98;101477.67;1741055;82;21348;-51
2022/03/14 05:13:00;;;;;;;27.60;17.10;;;;;;;4.85;49.94;101473.38;1739587;82;20925;-51
2022/03/14 05:15:27;;;;;;;32.98;18.92;;;;;;;4.92;49.82;101473.45;1739481;82;21407;-50
2022/03/14 05:17:54;;;;;;;30.85;18.50;;;;;;;4.94;49.77;101468.70;1739702;82;21355;-51
2022/03/14 05:20:22;;;;;;;31.00;20.07;;;;;;;4.98;49.88;101473.51;1739762;82;22586;-50
2022/03/14 05:22:49;;;;;;;29.72;17.60;;;;;;;4.94;49.94;101485.64;1739652;82;26385;-51
2022/03/14 05:25:22;;;;;;;31.02;19.02;;;;;;;4.92;49.93;101483.88;1739488;82;21556;-50
2022/03/14 05:27:52;;;;;;;31.45;19.25;;;;;;;4.94;49.79;101488.24;1740507;80;21052;-51
2022/03/14 05:30:18;;;;;;;27.73;18.70;;;;;;;4.96;49.68;101490.43;1738715;82;21544;-50
2022/03/14 05:32:45;;;;;;;34.20;18.87;;;;;;;4.99;49.91;101492.19;1738245;82;22690;-51
2022/03/14 05:35:12;;;;;;;34.60;19.73;;;;;;;5.01;49.73;101488.75;1739116;82;20913;-50
2022/03/14 05:37:39;;;;;;;30.57;17.87;;;;;;;4.95;49.93;101493.88;1739085;82;21816;-50
2022/03/14 05:40:07;;;;;;;36.13;19.70;;;;;;;5.01;49.71;101495.67;1739253;82;20894;-50
2022/03/14 05:42:34;;;;;;;29.50;18.12;;;;;;;5.10;49.71;101496.20;1739288;82;21447;-50
2022/03/14 05:45:01;;;;;;;32.75;19.15;;;;;;;5.13;49.53;101497.11;1739071;82;22895;-50
2022/03/14 05:47:27;;;;;;;28.30;19.10;;;;;;;5.20;49.60;101499.36;1739294;82;21411;-50
2022/03/14 05:49:54;;;;;;;32.07;19.50;;;;;;;5.26;49.29;101494.19;1744262;80;21514;-51
2022/03/14 05:52:21;;;;;;;29.52;19.45;;;;;;;5.31;49.19;101500.73;1768442;80;21544;-51
2022/03/14 05:54:48;;;;;;;26.05;18.65;;;;;;;5.39;49.09;101493.87;1768408;80;21602;-51
2022/03/14 05:57:15;;;;;;;30.17;17.33;;;;;;;5.44;48.84;101498.26;1770140;80;22918;-50
2022/03/14 05:59:42;;;;;;;29.90;18.80;;;;;;;5.46;48.79;101494.33;1770016;80;21858;-50
2022/03/14 06:02:10;;;;;;;30.37;17.70;;;;;;;5.51;48.43;101498.30;1770002;80;20954;-50
2022/03/14 06:04:40;;;;;;;28.77;17.85;;;;;;;5.50;48.52;101497.43;1769959;80;21420;-50
2022/03/14 06:07:07;;;;;;;26.23;16.67;;;;;;;5.51;48.50;101495.25;1770016;80;21412;-50
2022/03/14 06:09:34;;;;;;;28.60;18.00;;;;;;;5.53;48.30;101490.05;1770166;80;22561;-50
2022/03/14 06:12:01;;;;;;;34.10;17.35;;;;;;;5.59;48.27;101492.69;1769905;80;21420;-51
2022/03/14 06:14:28;;;;;;;25.80;15.58;;;;;;;5.63;47.48;101493.15;1771740;80;21467;-51
2022/03/14 06:16:56;;;;;;;25.75;15.30;;;;;;;5.65;47.34;101488.41;1770821;80;21484;-51
2022/03/14 06:19:23;;;;;;;24.15;14.83;;;;;;;5.70;47.32;101495.39;1772567;80;21542;-50
2022/03/14 06:21:50;;;;;;;24.60;14.55;;;;;;;5.74;47.41;101492.79;1772689;80;22550;-50
2022/03/14 06:24:17;;;;;;;24.07;14.00;;;;;;;5.83;46.82;101490.24;1772371;80;21443;-50
2022/03/14 06:26:45;;;;;;;;;;;;;;;5.92;46.88;101493.80;1775114;80;21403;-50
2022/03/14 06:29:13;;;;;;;18.48;12.65;;;;;;;6.01;46.54;101492.58;1772813;80;20594;-50
2022/03/14 06:31:39;;;;;;;;;;;;;;;6.00;46.31;101485.15;1775091;80;21619;-50
2022/03/14 06:34:06;;;;;;;21.50;12.27;;;;;;;6.10;45.04;101491.73;1768975;80;22500;-52
2022/03/14 06:36:34;;;;;;;17.60;12.00;;;;;;;6.09;45.43;101483.03;1768088;80;21426;-51
2022/03/14 06:39:00;;;;;;;;;;;;;;;6.04;45.53;101480.82;1770958;80;21428;-51
2022/03/14 06:41:27;;;;;;;14.47;9.75;;;;;;;6.09;45.21;101484.34;1775028;80;20697;-51
2022/03/14 06:43:56;;;;;;;16.07;10.80;;;;;;;6.23;45.42;101485.70;1774427;80;21478;-51
2022/03/14 06:46:23;;;;;;;15.88;9.40;;;;;;;6.31;45.12;101484.42;1775610;80;21618;-50
2022/03/14 06:48:49;;;;;;;11.90;8.43;;;;;;;6.41;44.71;101479.25;1775635;80;21508;-50
2022/03/14 06:51:16;;;;;;;12.35;8.70;;;;;;;6.44;44.33;101487.52;1775574;80;21428;-51
2022/03/14 06:53:43;;;;;;;13.80;8.08;;;;;;;6.34;43.65;101488.37;1775779;80;21516;-51
2022/03/14 06:56:10;;;;;;;12.37;7.50;;;;;;;6.42;43.38;101494.48;1775803;80;21554;-50
2022/03/14 06:58:38;;;;;;;10.80;6.72;;;;;;;6.52;43.41;101492.36;1775471;80;22491;-50
2022/03/14 07:01:06;;;;;;;9.10;5.75;;;;;;;6.59;42.79;101495.44;1775587;80;21393;-50
2022/03/14 07:03:33;;;;;;;9.30;6.07;;;;;;;6.57;42.24;101494.98;1775788;80;21444;-50
2022/03/14 07:06:00;;;;;;;10.53;6.72;;;;;;;6.61;42.42;101491.09;1775588;80;21417;-51
2022/03/14 07:08:26;;;;;;;10.28;6.90;;;;;;;6.66;42.16;101498.06;1775429;80;21440;-50
2022/03/14 07:10:54;;;;;;;11.80;6.85;;;;;;;6.60;41.49;101498.92;1775459;80;22476;-50
2022/03/14 07:13:22;;;;;;;9.78;6.12;;;;;;;6.68;41.33;101499.80;1765008;80;21450;-52
2022/03/14 07:15:49;;;;;;;6.75;5.15;;;;;;;6.63;41.43;101502.42;1741942;82;21455;-51
2022/03/14 07:18:16;;;;;;;7.45;5.75;;;;;;;6.60;41.08;101506.31;1740159;82;21573;-52
2022/03/14 07:20:43;;;;;;;7.37;5.83;;;;;;;6.63;41.13;101508.95;1741746;82;21513;-52
2022/03/14 07:23:10;;;;;;;6.78;5.37;;;;;;;6.63;41.20;101510.70;1741684;82;22822;-51
2022/03/14 07:25:37;;;;;;;12.40;6.95;;;;;;;6.69;41.03;101512.02;1741655;82;21036;-51
2022/03/14 07:28:08;;;;;;;7.20;5.80;;;;;;;6.78;41.08;101518.58;1741666;82;21439;-50
2022/03/14 07:30:38;;;;;;;11.88;6.50;;;;;;;6.81;41.00;101509.86;1742184;82;21829;-50
2022/03/14 07:33:05;;;;;;;7.55;6.60;;;;;;;6.88;41.28;101504.23;1741747;82;20893;-50
2022/03/14 07:35:31;;;;;;;9.53;6.23;;;;;;;6.97;41.10;101505.11;1741774;82;22454;-51
2022/03/14 07:37:58;;;;;;;8.48;6.05;;;;;;;6.93;39.93;101507.70;1741548;82;21533;-51
2022/03/14 07:40:25;;;;;;;9.05;6.30;;;;;;;6.91;40.41;101513.37;1754364;80;20970;-52
2022/03/14 07:42:54;;;;;;;8.68;6.45;;;;;;;6.95;40.66;101512.09;1772146;80;21494;-52
2022/03/14 07:45:21;;;;;;;7.05;5.78;;;;;;;7.04;40.25;101515.13;1772488;80;21441;-52
2022/03/14 07:47:48;;;;;;;10.20;5.70;;;;;;;7.25;39.95;101505.56;1772515;80;22736;-51
2022/03/14 07:50:15;;;;;;;8.70;5.80;;;;;;;7.32;39.91;101505.56;1772669;80;21392;-52
2022/03/14 07:52:44;;;;;;;7.67;5.78;;;;;;;7.39;39.91;101504.70;1749689;80;21470;-52
2022/03/14 07:55:11;;;;;;;7.20;5.92;;;;;;;7.47;39.71;101501.22;1746687;80;21494;-52
2022/03/14 07:57:38;;;;;;;9.43;6.00;;;;;;;7.41;38.97;101506.88;1772749;80;21352;-52
2022/03/14 08:00:10;;;;;;;7.22;6.37;;;;;;;7.35;39.65;101504.27;1772513;80;21412;-52
2022/03/14 08:02:45;;;;;;;12.23;6.03;;;;;;;7.30;39.40;101502.08;1772561;80;21392;-53
2022/03/14 08:05:15;;;;;;;9.03;6.97;;;;;;;7.35;39.45;101506.89;1772603;80;21468;-53
2022/03/14 08:07:45;;;;;;;7.47;5.72;;;;;;;7.30;39.92;101512.99;1772493;80;21393;-53
2022/03/14 08:10:16;;;;;;;6.55;5.40;;;;;;;7.27;39.98;101512.98;1772444;80;21525;-52
2022/03/14 08:12:49;;;;;;;6.20;5.42;;;;;;;7.25;39.76;101513.41;1768643;80;21437;-52
2022/03/14 08:15:28;;;;;;;8.00;5.35;;;;;;;7.81;39.30;101512.52;1764276;80;21452;-52
2022/03/14 08:18:01;;;;;;;5.78;5.20;;;;;;;8.85;37.50;101509.11;1764248;80;21454;-52
2022/03/14 08:20:29;;;;;;;5.78;4.42;;;;;;;9.48;36.37;101506.91;1764171;80;21491;-52
2022/03/14 08:22:59;;;;;;;5.72;4.97;;;;;;;10.49;34.77;101506.31;1764630;80;21439;-53
2022/03/14 08:25:30;;;;;;;5.53;4.78;;;;;;;11.42;32.92;101499.23;1764315;80;22536;-52
2022/03/14 08:27:58;;;;;;;5.28;4.78;;;;;;;11.55;32.66;101494.63;1764158;80;21387;-52
2022/03/14 08:30:25;;;;;;;7.78;5.22;;;;;;;11.29;33.04;101504.28;1764348;80;20982;-52
2022/03/14 08:32:56;;;;;;;7.28;5.55;;;;;;;11.00;33.31;101507.35;1764416;80;21523;-52
2022/03/14 08:35:23;;;;;;;5.28;4.78;;;;;;;11.05;33.50;101504.21;1764438;80;21426;-52
2022/03/14 08:37:52;;;;;;;9.00;5.80;;;;;;;11.59;32.70;101492.36;1764469;80;22599;-52
2022/03/14 08:40:21;;;;;;;6.28;4.80;;;;;;;11.54;31.86;101488.06;1764302;80;21396;-52
2022/03/14 08:42:48;;;;;;;5.58;4.83;;;;;;;11.16;32.44;101490.89;1764314;80;21415;-52
2022/03/14 08:45:16;;;;;;;5.85;5.25;;;;;;;10.56;32.63;101491.76;1764610;80;20935;-54
2022/03/14 08:47:42;;;;;;;6.47;4.80;;;;;;;10.50;33.24;101486.99;1764313;80;20970;-54
2022/03/14 08:50:11;;;;;;;5.80;5.20;;;;;;;11.47;32.27;101482.02;1764328;80;21475;-52
2022/03/14 08:52:38;;;;;;;6.37;4.90;;;;;;;12.52;30.48;101479.58;1764333;80;21506;-52
2022/03/14 08:55:07;;;;;;;8.10;5.37;;;;;;;12.87;30.10;101470.48;1764589;80;21705;-52
2022/03/14 08:57:33;;;;;;;5.05;4.55;;;;;;;13.91;29.48;101474.45;1764476;80;21528;-53
2022/03/14 09:00:00;;;;;;;6.55;4.47;;;;;;;14.11;29.37;101475.23;1764211;80;20969;-53
2022/03/14 09:02:27;;;;;;;5.90;4.47;;;;;;;14.19;28.64;101472.36;1764348;80;22576;-52
2022/03/14 09:04:53;;;;;;;7.75;5.40;;;;;;;14.24;28.66;101462.52;1764386;80;21531;-53
2022/03/14 09:07:28;;;;;;;5.97;4.85;;;;;;;14.34;28.70;101467.09;1764492;80;21566;-53
2022/03/14 09:10:05;;;;;;;5.97;4.83;;;;;;;14.30;29.01;101462.34;1764376;80;21352;-53
2022/03/14 09:12:33;;;;;;;;;;;;;;;14.13;28.94;101467.26;1767330;80;21439;-53
2022/03/14 09:15:01;;;;;;;8.03;4.83;;;;;;;13.85;29.01;101461.88;1764516;80;22474;-54
2022/03/14 09:17:32;;;;;;;5.70;4.95;;;;;;;13.82;29.01;101460.16;1764390;80;21509;-53
2022/03/14 09:20:05;;;;;;;5.95;5.42;;;;;;;13.85;29.00;101456.12;1764363;80;20898;-53
2022/03/14 09:22:32;;;;;;;5.30;4.75;;;;;;;13.74;28.97;101452.91;1764350;80;21491;-53
2022/03/14 09:25:00;;;;;;;7.55;5.12;;;;;;;13.53;28.99;101452.56;1764427;80;21321;-53
2022/03/14 09:27:28;;;;;;;7.35;4.87;;;;;;;13.36;29.38;101444.22;1764265;80;22506;-53
2022/03/14 09:29:55;;;;;;;6.53;5.30;;;;;;;13.29;29.02;101441.28;1764261;80;21381;-53
2022/03/14 09:32:21;;;;;;;6.10;5.50;;;;;;;13.21;29.54;101436.20;1764312;80;21458;-53
2022/03/14 09:34:48;;;;;;;6.47;5.87;;;;;;;13.39;29.24;101426.95;1764248;80;21423;-53
2022/03/14 09:37:15;;;;;;;5.90;5.30;;;;;;;13.33;29.18;101425.80;1764271;80;21431;-54
2022/03/14 09:39:45;;;;;;;7.95;5.85;;;;;;;13.29;29.46;101424.11;1764318;80;21367;-54
2022/03/14 09:42:12;;;;;;;7.35;5.70;;;;;;;13.07;28.83;101429.06;1764805;80;21534;-54
2022/03/14 09:44:42;;;;;;;6.90;5.97;;;;;;;12.72;29.46;101429.01;1764513;80;20958;-53
2022/03/14 09:47:10;;;;;;;5.60;5.10;;;;;;;12.57;30.31;101433.33;1764250;80;21413;-53
2022/03/14 09:49:37;;;;;;;7.50;5.42;;;;;;;12.48;29.96;101430.43;1764194;80;21452;-53
2022/03/14 09:52:05;;;;;;;6.08;5.47;;;;;;;12.21;29.83;101430.59;1764380;80;22608;-53
2022/03/14 09:54:32;;;;;;;7.35;5.40;;;;;;;11.96;30.58;101432.84;1764152;80;21456;-53
2022/03/14 09:57:01;;;;;;;7.15;5.72;;;;;;;11.90;29.96;101436.47;1764325;80;20966;-54
2022/03/14 09:59:28;;;;;;;5.70;5.05;;;;;;;11.91;30.42;101440.00;1764317;80;21113;-53
2022/03/14 10:01:55;;;;;;;6.37;5.77;;;;;;;11.81;30.61;101434.87;1763998;80;21577;-53
2022/03/14 10:04:22;;;;;;;6.40;5.77;;;;;;;11.71;30.91;101433.29;1764541;80;22499;-54
2022/03/14 10:06:49;;;;;;;5.95;5.45;;;;;;;11.71;31.11;101427.16;1764450;80;29305;-54
2022/03/14 10:09:16;;;;;;;5.90;5.28;;;;;;;11.63;30.33;101426.85;1764319;80;21488;-54
2022/03/14 10:11:44;;;;;;;6.97;6.08;;;;;;;11.42;30.87;101420.67;1764128;80;21045;-53
2022/03/14 10:14:17;;;;;;;7.58;5.78;;;;;;;11.45;30.95;101407.00;1764156;80;21442;-53
2022/03/14 10:16:40;;;;;;;6.78;5.17;;;;;;;11.43;31.41;101408.80;1763931;80;22464;-53
2022/03/14 10:19:09;;;;;;;8.80;5.65;;;;;;;11.60;31.47;101407.17;1764525;80;21420;-53
2022/03/14 10:21:40;;;;;;;5.90;5.30;;;;;;;11.74;30.53;101406.03;1764331;80;21419;-55
2022/03/14 10:24:09;;;;;;;6.97;6.25;;;;;;;11.74;30.18;101404.26;1764449;80;21039;-53
2022/03/14 10:26:43;;;;;;;6.62;5.92;;;;;;;11.78;30.85;101409.02;1764282;80;21402;-54
2022/03/14 10:29:15;;;;;;;8.55;7.50;;;;;;;11.98;30.71;101398.98;1741595;80;22448;-54
2022/03/14 10:31:43;;;;;;;7.65;5.33;;;;;;;12.03;30.54;101395.78;1722505;81;21522;-54
2022/03/14 10:34:13;;;;;;;5.62;5.03;;;;;;;11.90;29.92;101398.25;1722926;82;21492;-54
2022/03/14 10:36:54;;;;;;;7.20;5.42;;;;;;;11.93;30.54;101392.06;1723237;82;20914;-54
2022/03/14 10:39:29;;;;;;;5.87;4.70;;;;;;;12.03;30.29;101388.33;1723386;82;21424;-53
2022/03/14 10:42:07;;;;;;;7.28;5.92;;;;;;;12.12;30.39;101381.55;1723025;82;22524;-54
2022/03/14 10:44:36;;;;;;;7.80;5.70;;;;;;;12.33;30.31;101379.34;1723196;82;21452;-53
2022/03/14 10:47:05;;;;;;;6.62;5.65;;;;;;;12.51;30.20;101381.99;1723005;82;21002;-53
2022/03/14 10:49:34;;;;;;;6.15;5.55;;;;;;;12.62;29.89;101383.50;1723165;82;21539;-53
2022/03/14 10:52:07;;;;;;;5.28;4.78;;;;;;;12.76;30.27;101371.28;1722940;82;21522;-53
2022/03/14 10:54:38;;;;;;;6.58;5.22;;;;;;;12.89;29.81;101369.67;1732966;80;21561;-54
2022/03/14 10:57:14;;;;;;;5.62;5.10;;;;;;;12.84;29.06;101356.58;1727663;80;21468;-54
2022/03/14 10:59:49;;;;;;;4.65;4.20;;;;;;;12.68;29.79;101360.05;1743160;80;21526;-55
2022/03/14 11:02:22;;;;;;;7.67;4.70;;;;;;;12.81;29.19;101359.30;1764273;80;21431;-54
2022/03/14 11:04:54;;;;;;;6.00;5.37;;;;;;;12.82;28.86;101356.61;1763751;80;21495;-54
2022/03/14 11:07:31;;;;;;;6.33;5.22;;;;;;;12.87;29.72;101346.41;1764151;80;22430;-54
2022/03/14 11:10:00;;;;;;;6.53;5.80;;;;;;;13.07;29.61;101351.16;1764214;80;20887;-53
2022/03/14 11:12:30;;;;;;;8.38;6.28;;;;;;;13.27;29.29;101354.61;1764231;80;21455;-54
2022/03/14 11:15:01;;;;;;;6.17;5.28;;;;;;;13.25;28.97;101344.08;1769949;80;21460;-53
2022/03/14 11:17:34;;;;;;;7.97;6.47;;;;;;;13.33;29.22;101336.84;1772358;80;21407;-54
2022/03/14 11:20:01;;;;;;;7.15;6.05;;;;;;;13.59;28.95;101336.11;1771310;80;22588;-54
2022/03/14 11:22:29;;;;;;;6.45;5.85;;;;;;;13.83;28.77;101331.89;1772567;80;20901;-53
2022/03/14 11:24:58;;;;;;;7.75;5.92;;;;;;;14.07;28.99;101328.55;1767432;80;21418;-55
2022/03/14 11:27:33;;;;;;;7.78;5.95;;;;;;;14.24;28.13;101327.60;1752881;80;21446;-54
2022/03/14 11:30:08;;;;;;;6.65;5.40;;;;;;;14.27;28.24;101326.16;1741365;82;21469;-57